Time;durP1;ratioP1;P1;durP2;ratioP2;P2;SDS_P1;SDS_P2;PMS_P1;PMS_P2;Temp;Humidity;BMP_temperature;BMP_pressure;BME280_temperature;BME280_humidity;BME280_pressure;Samples;Min_cycle;Max_cycle;Signal;HPM_P1;HPM_P2
2023/06/04 00:01:58;;;;;;;5.32;3.80;;;460.90;2380.80;;;;;;5032730;28;20037;-80
2023/06/04 00:04:25;;;;;;;5.97;4.32;;;460.80;2380.80;;;;;;5033534;28;20108;-83
2023/06/04 00:06:51;;;;;;;5.70;4.10;;;460.80;2380.80;;;;;;5032396;28;20025;-79
2023/06/04 00:09:17;;;;;;;5.93;4.47;;;460.80;2380.80;;;;;;5032471;28;20072;-80
2023/06/04 00:11:45;;;;;;;7.10;4.53;;;460.80;2380.80;;;;;;5032422;28;20082;-80
2023/06/04 00:14:11;;;;;;;6.35;4.25;;;460.90;2380.80;;;;;;5032316;28;20034;-81
2023/06/04 00:16:37;;;;;;;5.50;4.00;;;460.90;2380.80;;;;;;5042019;28;20078;-80
2023/06/04 00:19:03;;;;;;;9.70;4.25;;;460.90;2380.80;;;;;;5068715;28;20119;-82
2023/06/04 00:21:28;;;;;;;6.93;3.80;;;460.90;2380.80;;;;;;5068900;28;20028;-80
2023/06/04 00:23:54;;;;;;;5.80;3.83;;;460.80;2380.80;;;;;;5069132;28;20036;-81
2023/06/04 00:26:20;;;;;;;5.15;3.72;;;460.80;2380.80;;;;;;5053595;28;20052;-79
2023/06/04 00:28:46;;;;;;;6.80;4.50;;;460.80;2380.80;;;;;;5068628;28;20057;-79
2023/06/04 00:31:12;;;;;;;5.63;4.00;;;460.80;2380.80;;;;;;5068972;28;20025;-80
2023/06/04 00:33:39;;;;;;;7.15;4.22;;;460.90;2380.80;;;;;;5068898;28;20075;-81
2023/06/04 00:36:05;;;;;;;6.22;4.22;;;460.80;2380.80;;;;;;5068561;28;20067;-81
2023/06/04 00:38:31;;;;;;;6.72;4.00;;;460.90;2380.80;;;;;;5069195;28;20036;-80
2023/06/04 00:40:57;;;;;;;4.63;3.60;;;460.90;2380.80;;;;;;5068931;28;20026;-81
2023/06/04 00:43:25;;;;;;;6.95;3.70;;;461.40;2380.80;;;;;;5068510;28;20412;-81
2023/06/04 00:45:52;;;;;;;6.60;3.75;;;460.90;2380.80;;;;;;5053327;28;20021;-81
2023/06/04 00:48:18;;;;;;;10.43;3.97;;;460.90;2380.80;;;;;;5056921;28;20033;-81
2023/06/04 00:50:44;;;;;;;7.32;4.28;;;460.90;2380.80;;;;;;5072554;28;20029;-82
2023/06/04 00:53:11;;;;;;;7.22;4.28;;;460.90;2380.80;;;;;;5056982;28;20040;-80
2023/06/04 00:55:36;;;;;;;6.60;4.20;;;460.90;2380.80;;;;;;5072408;28;20035;-81
2023/06/04 00:58:04;;;;;;;7.45;4.80;;;461.00;2278.40;;;;;;5072626;28;20029;-82
2023/06/04 01:00:31;;;;;;;10.18;4.47;;;461.10;2380.80;;;;;;5072611;28;20056;-80
2023/06/04 01:03:02;;;;;;;7.43;4.47;;;461.10;2201.60;;;;;;5072183;28;20032;-81
2023/06/04 01:05:51;;;;;;;5.57;4.00;;;461.10;2022.40;;;;;;5072360;28;20059;-80
2023/06/04 01:08:18;;;;;;;6.78;4.45;;;461.10;2380.80;;;;;;5072545;28;20056;-82
2023/06/04 01:10:55;;;;;;;4.40;3.70;;;461.10;2380.80;;;;;;5071974;28;20028;-80
2023/06/04 01:13:21;;;;;;;7.85;4.35;;;461.10;2227.20;;;;;;5056921;28;20029;-79
2023/06/04 01:15:47;;;;;;;5.35;4.50;;;461.10;2380.80;;;;;;5072323;28;20040;-80
2023/06/04 01:18:27;;;;;;;7.93;4.07;;;461.10;2380.80;;;;;;5071980;28;20381;-80
2023/06/04 01:21:01;;;;;;;6.05;4.68;;;461.10;2150.40;;;;;;5072233;28;20413;-80
2023/06/04 01:23:45;;;;;;;8.98;5.00;;;461.10;2380.80;;;;;;5056266;28;20105;-81
2023/06/04 01:26:12;;;;;;;7.10;5.38;;;461.10;2176.00;;;;;;5072073;28;20114;-80
2023/06/04 01:28:39;;;;;;;9.77;5.13;;;461.10;2380.80;;;;;;5072215;28;20025;-79
2023/06/04 01:31:08;;;;;;;7.57;5.05;;;461.20;2380.80;;;;;;5071863;28;20021;-79
2023/06/04 01:33:35;;;;;;;6.85;4.72;;;461.10;2380.80;;;;;;5071972;28;20519;-80
2023/06/04 01:36:02;;;;;;;7.25;5.00;;;461.20;2022.40;;;;;;5071666;28;20033;-80
2023/06/04 01:38:28;;;;;;;8.13;5.15;;;461.20;2176.00;;;;;;5056215;28;20029;-80
2023/06/04 01:41:00;;;;;;;7.15;4.63;;;461.20;2329.60;;;;;;5071831;28;20028;-81
2023/06/04 01:43:27;;;;;;;8.65;4.85;;;461.10;2380.80;;;;;;5071511;28;20029;-80
2023/06/04 01:45:54;;;;;;;6.82;5.25;;;461.20;2380.80;;;;;;5071471;28;20055;-80
2023/06/04 01:48:20;;;;;;;11.48;5.47;;;461.10;2380.80;;;;;;5071815;28;20025;-82
2023/06/04 01:50:46;;;;;;;7.57;5.88;;;461.10;2380.80;;;;;;5071734;28;20116;-80
2023/06/04 01:53:11;;;;;;;6.57;4.82;;;461.10;2380.80;;;;;;5071308;28;20033;-80
2023/06/04 01:55:37;;;;;;;9.82;4.93;;;461.10;2380.80;;;;;;5071278;28;20041;-81
2023/06/04 01:58:03;;;;;;;6.75;5.22;;;461.10;2380.80;;;;;;5070513;28;20025;-81
2023/06/04 02:00:29;;;;;;;8.07;4.93;;;461.10;2380.80;;;;;;5071202;28;20139;-80
2023/06/04 02:02:55;;;;;;;11.18;4.80;;;461.10;2380.80;;;;;;5071426;28;20120;-80
2023/06/04 02:05:21;;;;;;;5.10;4.35;;;461.10;2380.80;;;;;;5055546;28;20506;-81
2023/06/04 02:07:47;;;;;;;7.60;4.90;;;461.10;2380.80;;;;;;5055821;28;20110;-80
2023/06/04 02:10:17;;;;;;;6.15;4.53;;;461.10;2073.60;;;;;;5055951;28;20025;-80
2023/06/04 02:13:03;;;;;;;4.97;4.13;;;461.10;2380.80;;;;;;5055280;28;20025;-81
2023/06/04 02:15:30;;;;;;;5.68;4.43;;;461.10;2380.80;;;;;;5071356;28;20036;-80
2023/06/04 02:18:15;;;;;;;7.40;4.80;;;461.10;2176.00;;;;;;5056145;28;20035;-81
2023/06/04 02:20:42;;;;;;;5.97;4.80;;;461.10;2380.80;;;;;;5055585;28;20028;-80
2023/06/04 02:23:08;;;;;;;7.82;4.70;;;461.10;2380.80;;;;;;5055310;28;20435;-81
2023/06/04 02:25:34;;;;;;;6.60;4.40;;;461.10;2380.80;;;;;;5071320;28;20074;-80
2023/06/04 02:28:00;;;;;;;7.40;4.85;;;461.10;2380.80;;;;;;5079906;28;20017;-78
2023/06/04 02:30:26;;;;;;;6.78;4.28;;;461.00;2380.80;;;;;;5092060;28;20029;-80
2023/06/04 02:32:54;;;;;;;7.15;4.28;;;461.10;2380.80;;;;;;5070897;28;20427;-80
2023/06/04 02:35:22;;;;;;;6.47;4.55;;;461.00;2380.80;;;;;;5070630;28;20040;-81
2023/06/04 02:37:49;;;;;;;5.82;4.35;;;461.10;2380.80;;;;;;5053114;28;20116;-80
2023/06/04 02:40:15;;;;;;;6.50;5.00;;;461.10;2380.80;;;;;;5033628;28;20073;-80
2023/06/04 02:42:41;;;;;;;11.13;5.55;;;461.10;2380.80;;;;;;5034120;28;20087;-80
2023/06/04 02:45:07;;;;;;;6.07;4.32;;;461.10;2380.80;;;;;;5050488;28;20484;-80
2023/06/04 02:47:33;;;;;;;6.65;4.35;;;461.30;2380.80;;;;;;5047476;28;20037;-80
2023/06/04 02:49:59;;;;;;;7.07;4.97;;;461.10;2380.80;;;;;;5051877;28;20500;-82
2023/06/04 02:52:25;;;;;;;6.57;5.00;;;461.10;2380.80;;;;;;5055118;28;20159;-81
2023/06/04 02:54:51;;;;;;;7.60;5.13;;;461.20;2380.80;;;;;;5070184;28;20040;-80
2023/06/04 02:57:17;;;;;;;9.13;5.57;;;461.20;2380.80;;;;;;5070684;28;20118;-81
2023/06/04 02:59:43;;;;;;;7.00;5.03;;;461.10;2380.80;;;;;;5070410;28;20052;-80
2023/06/04 03:02:09;;;;;;;8.20;5.07;;;461.20;2380.80;;;;;;5070104;28;20119;-80
2023/06/04 03:04:38;;;;;;;5.95;4.65;;;461.10;2380.80;;;;;;5054521;28;20461;-80
2023/06/04 03:07:05;;;;;;;8.73;5.82;;;461.10;2380.80;;;;;;5070269;28;20131;-81
2023/06/04 03:09:31;;;;;;;7.32;6.28;;;461.20;2380.80;;;;;;5054011;28;20021;-80
2023/06/04 03:12:01;;;;;;;7.78;5.85;;;461.20;2380.80;;;;;;5070138;28;20361;-81
2023/06/04 03:14:32;;;;;;;9.10;6.28;;;461.20;2380.80;;;;;;5070103;28;20079;-80
2023/06/04 03:17:07;;;;;;;6.60;5.60;;;461.30;2380.80;;;;;;5069764;28;20461;-80
2023/06/04 03:19:41;;;;;;;11.60;6.50;;;461.20;2380.80;;;;;;5070042;28;20115;-80
2023/06/04 03:22:08;;;;;;;9.10;5.78;;;461.20;2380.80;;;;;;5069914;28;20029;-81
2023/06/04 03:24:36;;;;;;;7.95;5.85;;;461.20;2380.80;;;;;;5053187;28;20029;-80
2023/06/04 03:27:03;;;;;;;8.63;5.15;;;461.30;2380.80;;;;;;5034504;28;20021;-82
2023/06/04 03:29:30;;;;;;;6.80;5.53;;;461.30;2380.80;;;;;;5049525;28;20026;-81
2023/06/04 03:31:56;;;;;;;6.95;4.95;;;461.30;2380.80;;;;;;5049722;28;20066;-81
2023/06/04 03:34:25;;;;;;;9.77;5.47;;;461.30;2073.60;;;;;;5049723;28;20032;-80
2023/06/04 03:36:54;;;;;;;6.82;5.45;;;461.30;2380.80;;;;;;5049404;28;20025;-80
2023/06/04 03:39:21;;;;;;;7.00;5.30;;;461.30;2380.80;;;;;;5049605;28;20029;-80
2023/06/04 03:41:47;;;;;;;8.30;5.50;;;461.40;2380.80;;;;;;5033034;28;20033;-80
2023/06/04 03:44:17;;;;;;;8.52;6.40;;;461.30;2380.80;;;;;;5033762;28;20029;-80
2023/06/04 03:46:44;;;;;;;7.95;5.88;;;461.30;2380.80;;;;;;5049562;28;20071;-80
2023/06/04 03:49:11;;;;;;;10.40;5.45;;;461.30;2380.80;;;;;;5049470;28;20080;-79
2023/06/04 03:51:38;;;;;;;11.23;6.47;;;461.20;2380.80;;;;;;5032523;28;20053;-80
2023/06/04 03:54:04;;;;;;;7.55;6.63;;;461.20;2380.80;;;;;;5049434;28;20522;-80
2023/06/04 03:56:30;;;;;;;10.57;8.38;;;461.20;2380.80;;;;;;5034324;28;20130;-80
2023/06/04 03:58:56;;;;;;;10.25;5.75;;;461.20;2380.80;;;;;;5049125;28;20401;-80
2023/06/04 04:01:23;;;;;;;7.78;5.82;;;461.30;2380.80;;;;;;5034194;28;20353;-80
2023/06/04 04:03:50;;;;;;;7.88;5.70;;;461.20;2380.80;;;;;;5049269;28;20399;-79
2023/06/04 04:06:17;;;;;;;9.50;5.40;;;461.10;2380.80;;;;;;5033718;28;20038;-80
2023/06/04 04:08:43;;;;;;;9.27;6.05;;;461.70;2380.80;;;;;;5032650;28;20034;-80
2023/06/04 04:11:13;;;;;;;9.35;5.00;;;461.30;2380.80;;;;;;5032797;28;20112;-81
2023/06/04 04:13:39;;;;;;;7.53;5.13;;;461.40;2380.80;;;;;;5049166;28;20427;-80
2023/06/04 04:16:05;;;;;;;8.25;4.88;;;461.40;2380.80;;;;;;5049118;28;20026;-80
2023/06/04 04:18:36;;;;;;;9.20;4.93;;;461.40;2380.80;;;;;;5048780;28;20515;-82
2023/06/04 04:21:03;;;;;;;6.55;4.25;;;461.40;2380.80;;;;;;5048556;28;20453;-80
2023/06/04 04:23:31;;;;;;;6.18;4.72;;;461.40;2380.80;;;;;;5033724;28;20029;-81
2023/06/04 04:25:58;;;;;;;6.55;4.72;;;461.30;2380.80;;;;;;5048780;28;20048;-80
2023/06/04 04:28:28;;;;;;;7.68;4.88;;;461.40;2355.20;;;;;;5033612;28;20022;-80
2023/06/04 04:30:57;;;;;;;7.07;4.68;;;461.30;2380.80;;;;;;5033603;28;20022;-80
2023/06/04 04:33:26;;;;;;;6.68;5.32;;;461.20;2380.80;;;;;;5033346;28;20037;-80
2023/06/04 04:35:53;;;;;;;6.90;5.10;;;461.20;2099.20;;;;;;5048908;28;20068;-80
2023/06/04 04:38:23;;;;;;;9.35;5.00;;;461.20;2380.80;;;;;;5048879;28;20041;-81
2023/06/04 04:40:51;;;;;;;6.13;4.78;;;461.20;2380.80;;;;;;5031692;28;20025;-80
2023/06/04 04:43:29;;;;;;;7.10;4.65;;;461.20;2380.80;;;;;;5033890;28;20036;-81
2023/06/04 04:45:54;;;;;;;5.68;4.10;;;461.30;2380.80;;;;;;5048891;28;20026;-82
2023/06/04 04:48:20;;;;;;;14.80;4.95;;;461.30;2380.80;;;;;;5033185;28;20025;-80
2023/06/04 04:50:46;;;;;;;8.93;4.40;;;461.30;2380.80;;;;;;5048808;28;20030;-80
2023/06/04 04:53:12;;;;;;;7.28;3.83;;;461.30;2380.80;;;;;;5032840;28;20492;-80
2023/06/04 04:55:38;;;;;;;7.28;3.83;;;461.40;2380.80;;;;;;5048739;28;20033;-80
2023/06/04 04:58:03;;;;;;;6.32;3.83;;;461.40;2380.80;;;;;;5048784;28;20033;-80
2023/06/04 05:00:30;;;;;;;5.30;3.47;;;461.40;2380.80;;;;;;5048894;28;20117;-80
2023/06/04 05:02:56;;;;;;;6.47;4.50;;;461.40;2380.80;;;;;;5048758;28;20030;-80
2023/06/04 05:05:21;;;;;;;9.52;4.43;;;461.40;2380.80;;;;;;5048444;28;20378;-80
2023/06/04 05:07:47;;;;;;;5.97;3.80;;;461.40;2380.80;;;;;;5033070;28;20029;-80
2023/06/04 05:10:13;;;;;;;7.00;3.75;;;461.40;2380.80;;;;;;5048645;28;20030;-80
2023/06/04 05:12:40;;;;;;;6.57;3.95;;;461.40;2380.80;;;;;;5033225;28;20034;-80
2023/06/04 05:15:06;;;;;;;7.35;4.20;;;461.30;2380.80;;;;;;5048356;28;20025;-80
2023/06/04 05:17:32;;;;;;;7.90;4.38;;;461.40;2380.80;;;;;;5048417;28;20079;-80
2023/06/04 05:20:11;;;;;;;7.90;4.20;;;461.40;2380.80;;;;;;5033158;28;20384;-81
2023/06/04 05:22:37;;;;;;;5.55;4.03;;;461.40;2380.80;;;;;;5032938;28;20032;-79
2023/06/04 05:25:03;;;;;;;8.07;4.25;;;461.40;2380.80;;;;;;5033062;28;20072;-80
2023/06/04 05:27:31;;;;;;;5.65;4.28;;;461.30;2380.80;;;;;;5031833;28;20491;-80
2023/06/04 05:29:57;;;;;;;10.85;4.70;;;461.30;2380.80;;;;;;5047892;28;20026;-80
2023/06/04 05:32:23;;;;;;;5.55;4.30;;;461.20;2380.80;;;;;;5032458;28;20069;-80
2023/06/04 05:34:49;;;;;;;7.47;4.10;;;461.20;2380.80;;;;;;5052152;28;20049;-82
2023/06/04 05:37:18;;;;;;;6.38;3.67;;;461.20;2380.80;;;;;;5051661;28;20030;-80
2023/06/04 05:39:44;;;;;;;6.80;4.25;;;461.30;2380.80;;;;;;5052246;28;20120;-81
2023/06/04 05:42:10;;;;;;;5.63;4.03;;;461.20;2380.80;;;;;;5051891;28;20112;-80
2023/06/04 05:44:36;;;;;;;9.18;4.10;;;461.20;2380.80;;;;;;5051709;28;20022;-80
2023/06/04 05:47:01;;;;;;;5.50;3.55;;;461.20;2380.80;;;;;;5051735;28;20469;-80
2023/06/04 05:49:27;;;;;;;6.72;4.00;;;461.10;2380.80;;;;;;5034867;28;20030;-81
2023/06/04 05:51:53;;;;;;;8.57;3.90;;;461.00;2380.80;;;;;;5035136;28;20036;-80
2023/06/04 05:54:19;;;;;;;5.95;4.30;;;461.10;2380.80;;;;;;5035056;28;20036;-81
2023/06/04 05:56:45;;;;;;;6.97;4.63;;;461.10;2380.80;;;;;;5051360;28;20026;-80
2023/06/04 05:59:11;;;;;;;10.10;4.45;;;461.10;2380.80;;;;;;5051783;28;20030;-81
2023/06/04 06:01:37;;;;;;;8.02;4.75;;;461.10;2380.80;;;;;;5034961;28;20030;-80
2023/06/04 06:04:03;;;;;;;7.10;3.88;;;461.10;2380.80;;;;;;5036057;28;20022;-81
2023/06/04 06:06:29;;;;;;;8.40;4.35;;;461.10;2380.80;;;;;;5057467;28;20045;-80
2023/06/04 06:08:55;;;;;;;10.10;4.97;;;461.10;2380.80;;;;;;5047349;28;20468;-80
2023/06/04 06:11:21;;;;;;;9.00;4.60;;;461.00;2380.80;;;;;;5051204;28;20036;-81
2023/06/04 06:13:47;;;;;;;5.70;4.28;;;461.10;2380.80;;;;;;5051441;28;20048;-80
2023/06/04 06:16:13;;;;;;;10.55;4.60;;;460.90;2380.80;;;;;;5051351;28;20376;-80
2023/06/04 06:18:38;;;;;;;7.00;3.88;;;461.10;2380.80;;;;;;5034397;28;20037;-80
2023/06/04 06:21:04;;;;;;;7.55;4.05;;;461.10;2380.80;;;;;;5051323;28;20061;-81
2023/06/04 06:23:30;;;;;;;11.93;4.75;;;461.10;2380.80;;;;;;5054929;28;20033;-80
2023/06/04 06:25:56;;;;;;;6.18;3.83;;;461.00;2380.80;;;;;;5053088;28;20056;-81
2023/06/04 06:28:22;;;;;;;6.65;3.88;;;460.90;2380.80;;;;;;5054261;28;20032;-80
2023/06/04 06:30:48;;;;;;;6.05;3.80;;;460.80;2380.80;;;;;;5054298;28;20029;-82
2023/06/04 06:33:14;;;;;;;9.73;5.13;;;460.80;2380.80;;;;;;5053993;28;20037;-81
2023/06/04 06:35:40;;;;;;;7.45;4.97;;;460.90;2380.80;;;;;;5054307;28;20060;-80
2023/06/04 06:38:06;;;;;;;13.20;5.45;;;460.80;2380.80;;;;;;5054079;28;20063;-82
2023/06/04 06:40:31;;;;;;;7.28;5.05;;;436.10;2355.20;;;;;;5053830;28;20029;-80
2023/06/04 06:42:57;;;;;;;7.03;5.03;;;436.10;2355.20;;;;;;5055308;28;20447;-81
2023/06/04 06:45:23;;;;;;;6.25;4.57;;;436.10;2355.20;;;;;;5053242;28;20029;-81
2023/06/04 06:47:49;;;;;;;8.23;5.53;;;435.90;2355.20;;;;;;5054013;28;20530;-81
2023/06/04 06:50:15;;;;;;;6.60;4.38;;;435.80;2355.20;;;;;;5053956;28;20051;-82
2023/06/04 06:52:41;;;;;;;8.60;6.10;;;;;;;;;;5053475;28;20037;-81
2023/06/04 06:55:07;;;;;;;11.25;5.10;;;;;;;;;;5053677;28;20071;-81
2023/06/04 06:57:33;;;;;;;8.05;5.43;;;435.90;2355.20;;;;;;5055108;28;20373;-82
2023/06/04 06:59:59;;;;;;;7.55;5.60;;;435.70;2355.20;;;;;;5053924;28;20065;-82
2023/06/04 07:02:25;;;;;;;8.50;5.50;;;435.80;2355.20;;;;;;5053835;28;20025;-81
2023/06/04 07:04:51;;;;;;;7.43;5.43;;;435.80;2355.20;;;;;;5053354;28;20071;-82
2023/06/04 07:07:17;;;;;;;6.72;4.68;;;435.90;2355.20;;;;;;5053471;28;20449;-81
2023/06/04 07:09:43;;;;;;;7.75;6.10;;;435.80;2355.20;;;;;;5053441;28;20033;-82
2023/06/04 07:12:09;;;;;;;9.27;5.50;;;435.70;2355.20;;;;;;5054418;28;20040;-81
2023/06/04 07:14:34;;;;;;;6.85;4.90;;;435.70;2355.20;;;;;;5053184;28;20029;-81
2023/06/04 07:17:00;;;;;;;11.18;5.75;;;435.80;2355.20;;;;;;5053206;28;20491;-81
2023/06/04 07:19:26;;;;;;;8.82;5.72;;;435.80;2355.20;;;;;;5053450;28;20047;-81
2023/06/04 07:21:55;;;;;;;7.05;5.65;;;435.80;2355.20;;;;;;5053188;28;20021;-81
2023/06/04 07:24:21;;;;;;;7.68;5.88;;;435.80;2150.40;;;;;;5053274;28;20032;-81
2023/06/04 07:26:47;;;;;;;8.75;5.70;;;436.00;2355.20;;;;;;5054268;28;20025;-81
2023/06/04 07:29:13;;;;;;;6.65;5.10;;;435.90;2355.20;;;;;;5054251;28;20021;-81
2023/06/04 07:31:40;;;;;;;9.43;5.22;;;435.80;2355.20;;;;;;5053209;28;20029;-81
2023/06/04 07:34:06;;;;;;;8.07;5.15;;;435.80;2355.20;;;;;;5054206;28;20035;-82
2023/06/04 07:36:32;;;;;;;8.88;5.95;;;435.80;1971.20;;;;;;5052611;28;20111;-81
2023/06/04 07:38:58;;;;;;;9.57;6.22;;;435.60;2355.20;;;;;;5053075;28;20051;-80
2023/06/04 07:41:25;;;;;;;8.38;6.50;;;435.60;2355.20;;;;;;5052750;28;20070;-82
2023/06/04 07:43:51;;;;;;;11.93;6.93;;;435.60;2355.20;;;;;;5052993;28;20116;-79
2023/06/04 07:46:20;;;;;;;10.70;6.65;;;435.60;2355.20;;;;;;5052737;28;20032;-83
2023/06/04 07:48:46;;;;;;;8.30;6.55;;;435.60;2355.20;;;;;;5052506;28;20021;-81
2023/06/04 07:51:13;;;;;;;6.63;5.40;;;435.70;2355.20;;;;;;5052739;28;20021;-81
2023/06/04 07:53:39;;;;;;;8.05;5.90;;;435.60;2355.20;;;;;;5052626;28;20037;-81
2023/06/04 07:56:06;;;;;;;7.82;5.85;;;435.60;2355.20;;;;;;5053003;28;20025;-81
2023/06/04 07:58:32;;;;;;;7.55;5.57;;;435.70;2355.20;;;;;;5054063;28;20021;-81
2023/06/04 08:00:58;;;;;;;8.20;6.15;;;435.80;2355.20;;;;;;5052775;28;20072;-82
2023/06/04 08:03:24;;;;;;;9.95;6.70;;;435.90;2355.20;;;;;;5052523;28;20457;-81
2023/06/04 08:05:50;;;;;;;11.45;6.70;;;436.00;2355.20;;;;;;5053919;28;20556;-82
2023/06/04 08:08:16;;;;;;;7.85;5.78;;;436.10;2355.20;;;;;;5052803;28;20423;-81
2023/06/04 08:10:42;;;;;;;6.95;5.10;;;436.10;2355.20;;;;;;5052239;28;20025;-81
2023/06/04 08:13:09;;;;;;;8.70;5.50;;;436.10;2355.20;;;;;;5052454;28;20337;-81
2023/06/04 08:15:35;;;;;;;6.00;4.10;;;436.10;2355.20;;;;;;5052589;28;20032;-81
2023/06/04 08:18:01;;;;;;;5.82;4.65;;;460.80;2380.80;;;;;;5052413;28;20354;-82
2023/06/04 08:20:27;;;;;;;6.13;4.13;;;460.80;2380.80;;;;;;5053535;28;20129;-81
2023/06/04 08:22:52;;;;;;;6.75;4.75;;;436.10;2355.20;;;;;;5052303;28;20036;-82
2023/06/04 08:25:18;;;;;;;5.78;4.72;;;436.10;2355.20;;;;;;5052076;28;20029;-81
2023/06/04 08:27:44;;;;;;;8.00;4.68;;;436.10;2355.20;;;;;;5052406;28;20032;-81
2023/06/04 08:30:10;;;;;;;6.95;4.63;;;436.10;2355.20;;;;;;5052192;28;20032;-80
2023/06/04 08:32:36;;;;;;;7.32;5.47;;;436.00;2355.20;;;;;;5053646;28;20112;-81
2023/06/04 08:35:02;;;;;;;9.00;6.05;;;436.10;2355.20;;;;;;5052593;28;20029;-82
2023/06/04 08:37:28;;;;;;;6.82;5.75;;;436.00;2355.20;;;;;;5051632;28;20094;-80
2023/06/04 08:39:54;;;;;;;8.70;5.50;;;436.00;2355.20;;;;;;5052216;28;20029;-82
2023/06/04 08:42:30;;;;;;;7.93;4.90;;;436.00;2355.20;;;;;;5052138;28;20035;-81
2023/06/04 08:45:00;;;;;;;9.55;5.25;;;435.90;2355.20;;;;;;5050905;28;20064;-81
2023/06/04 08:47:28;;;;;;;8.32;5.45;;;435.80;2355.20;;;;;;5046567;28;20029;-81
2023/06/04 08:49:59;;;;;;;8.50;4.35;;;435.80;2355.20;;;;;;5048742;28;20021;-80
2023/06/04 08:52:26;;;;;;;6.78;4.38;;;435.80;2355.20;;;;;;5048457;28;20033;-80
2023/06/04 08:54:53;;;;;;;6.25;5.03;;;435.70;2355.20;;;;;;5032075;28;20057;-81
2023/06/04 08:57:19;;;;;;;6.75;4.30;;;435.80;2355.20;;;;;;5048796;28;20061;-82
2023/06/04 08:59:49;;;;;;;6.55;4.47;;;435.80;2355.20;;;;;;5048576;28;20463;-81
2023/06/04 09:02:16;;;;;;;6.80;4.82;;;435.90;2355.20;;;;;;5033471;28;20029;-80
2023/06/04 09:04:43;;;;;;;7.63;5.32;;;435.70;2355.20;;;;;;5048514;28;20101;-81
2023/06/04 09:07:11;;;;;;;11.57;5.70;;;435.70;2355.20;;;;;;5048846;28;20025;-81
2023/06/04 09:09:39;;;;;;;6.40;4.72;;;435.60;2355.20;;;;;;5052611;28;20025;-81
2023/06/04 09:12:10;;;;;;;8.63;5.45;;;435.40;2355.20;;;;;;5037437;28;20481;-81
2023/06/04 09:14:36;;;;;;;9.07;5.75;;;435.30;2022.40;;;;;;5052616;28;20120;-82
2023/06/04 09:17:02;;;;;;;10.45;4.75;;;435.30;2355.20;;;;;;5052583;28;20124;-81
2023/06/04 09:19:28;;;;;;;10.70;6.82;;;435.30;2329.60;;;;;;5052357;28;20025;-82
2023/06/04 09:21:56;;;;;;;9.88;6.10;;;435.30;2355.20;;;;;;5052465;28;20029;-82
2023/06/04 09:24:26;;;;;;;8.13;5.78;;;435.20;2355.20;;;;;;5058664;28;20036;-80
2023/06/04 09:26:52;;;;;;;8.52;6.25;;;435.30;2355.20;;;;;;5071939;28;20029;-80
2023/06/04 09:29:18;;;;;;;9.80;6.70;;;435.30;2355.20;;;;;;5071946;28;20029;-79
2023/06/04 09:31:57;;;;;;;9.25;6.40;;;435.30;2355.20;;;;;;5072220;28;20377;-82
2023/06/04 09:34:29;;;;;;;7.57;4.60;;;435.40;2355.20;;;;;;5056218;28;20025;-80
2023/06/04 09:36:56;;;;;;;9.35;4.43;;;435.60;2355.20;;;;;;5072527;28;20064;-80
2023/06/04 09:39:23;;;;;;;6.25;4.75;;;435.60;2355.20;;;;;;5071931;28;20025;-81
2023/06/04 09:42:02;;;;;;;8.00;5.18;;;435.50;2355.20;;;;;;5072252;28;20140;-82
2023/06/04 09:44:31;;;;;;;8.57;6.18;;;435.60;2329.60;;;;;;5091687;28;20025;-81
2023/06/04 09:46:57;;;;;;;11.18;5.75;;;435.90;2355.20;;;;;;5094757;28;20094;-78
2023/06/04 09:49:24;;;;;;;6.30;5.03;;;435.80;2355.20;;;;;;5054916;28;20025;-81
2023/06/04 09:51:50;;;;;;;11.80;8.15;;;435.60;1971.20;;;;;;5056404;28;20029;-79
2023/06/04 09:54:16;;;;;;;9.70;7.15;;;435.50;2355.20;;;;;;5055431;28;20388;-79
2023/06/04 09:56:42;;;;;;;8.20;4.38;;;435.50;2355.20;;;;;;5055750;28;20052;-78
2023/06/04 09:59:09;;;;;;;7.78;4.95;;;435.50;2355.20;;;;;;5055520;28;20048;-78
2023/06/04 10:01:39;;;;;;;8.68;5.72;;;435.30;2355.20;;;;;;5054987;28;20457;-79
2023/06/04 10:04:08;;;;;;;7.72;5.22;;;435.50;2022.40;;;;;;5054958;28;20029;-78
2023/06/04 10:06:36;;;;;;;7.07;4.63;;;435.60;2329.60;;;;;;5053584;28;20060;-78
2023/06/04 10:09:07;;;;;;;8.02;5.00;;;435.70;2355.20;;;;;;5054452;28;20369;-81
2023/06/04 10:11:47;;;;;;;8.18;6.30;;;435.50;2355.20;;;;;;5054551;28;20032;-78
2023/06/04 10:14:23;;;;;;;10.90;6.80;;;435.60;2355.20;;;;;;5053986;28;20393;-79
2023/06/04 10:16:51;;;;;;;7.68;4.60;;;435.60;2355.20;;;;;;5054368;28;20032;-80
2023/06/04 10:19:18;;;;;;;8.95;6.82;;;435.60;2355.20;;;;;;5054854;28;20499;-81
2023/06/04 10:21:45;;;;;;;10.98;7.50;;;435.30;2355.20;;;;;;5054320;28;20112;-80
2023/06/04 10:24:12;;;;;;;10.73;6.78;;;435.50;2355.20;;;;;;5054018;28;20186;-81
2023/06/04 10:26:40;;;;;;;7.47;5.78;;;435.60;2355.20;;;;;;5054325;28;20048;-80
2023/06/04 10:29:06;;;;;;;6.15;4.60;;;435.60;2355.20;;;;;;5054396;28;20049;-80
2023/06/04 10:31:33;;;;;;;7.68;5.50;;;435.60;2355.20;;;;;;5054017;28;20083;-81
2023/06/04 10:33:58;;;;;;;7.20;4.35;;;435.90;2355.20;;;;;;5055633;28;20064;-79
2023/06/04 10:36:25;;;;;;;7.13;4.40;;;435.80;2355.20;;;;;;5053738;28;20033;-80
2023/06/04 10:38:55;;;;;;;6.10;4.22;;;435.90;2355.20;;;;;;5054373;28;20033;-80
2023/06/04 10:41:22;;;;;;;5.68;4.60;;;436.00;2355.20;;;;;;5055882;28;20103;-78
2023/06/04 10:44:00;;;;;;;5.75;4.15;;;436.00;2355.20;;;;;;5053457;28;20033;-79
2023/06/04 10:46:26;;;;;;;7.75;4.57;;;436.00;2355.20;;;;;;5054026;28;20048;-81
2023/06/04 10:48:53;;;;;;;4.72;3.28;;;436.10;2355.20;;;;;;5053948;28;20021;-79
2023/06/04 10:51:33;;;;;;;7.13;4.03;;;436.10;2355.20;;;;;;5053507;28;20079;-80
2023/06/04 10:54:01;;;;;;;7.57;4.88;;;436.10;2355.20;;;;;;5054637;28;20033;-78
2023/06/04 10:56:27;;;;;;;6.75;3.45;;;460.80;2380.80;;;;;;5053690;28;20051;-78
2023/06/04 10:58:53;;;;;;;5.28;3.50;;;436.10;2355.20;;;;;;5053395;28;20036;-80
2023/06/04 11:01:30;;;;;;;5.88;4.47;;;436.00;2355.20;;;;;;5053666;28;20025;-81
2023/06/04 11:03:56;;;;;;;9.68;6.22;;;436.10;2355.20;;;;;;5053526;28;20057;-80
2023/06/04 11:06:23;;;;;;;7.78;5.78;;;436.00;2355.20;;;;;;5052982;28;20527;-79
2023/06/04 11:08:49;;;;;;;7.20;3.90;;;436.10;2355.20;;;;;;5053479;28;20063;-78
2023/06/04 11:11:15;;;;;;;6.20;3.72;;;436.10;2355.20;;;;;;5053240;28;20494;-79
2023/06/04 11:13:42;;;;;;;6.85;3.53;;;460.80;2380.80;;;;;;5053156;28;20036;-80
2023/06/04 11:16:19;;;;;;;6.60;4.72;;;460.80;2380.80;;;;;;5053178;28;20079;-80
2023/06/04 11:19:05;;;;;;;6.05;3.28;;;460.80;2380.80;;;;;;5053928;28;20381;-80
2023/06/04 11:21:34;;;;;;;6.55;4.50;;;460.80;2380.80;;;;;;5054084;28;20084;-79
2023/06/04 11:24:00;;;;;;;5.15;3.95;;;460.80;2380.80;;;;;;5068505;28;20067;-79
2023/06/04 11:26:34;;;;;;;6.95;5.47;;;461.00;2380.80;;;;;;5052504;28;20108;-80
2023/06/04 11:29:01;;;;;;;6.05;3.53;;;461.20;2380.80;;;;;;5053503;28;20090;-81
2023/06/04 11:31:27;;;;;;;7.15;3.03;;;461.00;2380.80;;;;;;5053150;28;20029;-81
2023/06/04 11:33:54;;;;;;;4.50;3.00;;;460.80;2380.80;;;;;;5054006;28;20472;-81
2023/06/04 11:36:23;;;;;;;8.73;5.13;;;461.00;2380.80;;;;;;5053342;28;20504;-82
2023/06/04 11:39:00;;;;;;;9.65;4.90;;;461.10;2380.80;;;;;;5053120;28;20025;-82
2023/06/04 11:41:31;;;;;;;6.03;4.05;;;461.20;2380.80;;;;;;5052644;28;20535;-81
2023/06/04 11:44:03;;;;;;;6.53;3.75;;;461.20;2380.80;;;;;;5053104;28;20025;-79
2023/06/04 11:46:28;;;;;;;5.15;3.00;;;461.20;2380.80;;;;;;5052707;28;20440;-80
2023/06/04 11:48:54;;;;;;;5.03;3.20;;;461.30;2380.80;;;;;;5054449;28;20029;-80
2023/06/04 11:51:21;;;;;;;5.07;3.10;;;461.40;2380.80;;;;;;5052846;28;20029;-81
2023/06/04 11:53:47;;;;;;;5.18;3.53;;;461.50;2380.80;;;;;;5052506;28;20056;-79
2023/06/04 11:56:14;;;;;;;7.22;3.47;;;461.60;2380.80;;;;;;5052672;28;20021;-80
2023/06/04 11:58:40;;;;;;;4.03;2.83;;;461.70;2380.80;;;;;;5052857;28;20464;-83
2023/06/04 12:01:08;;;;;;;6.55;3.80;;;461.70;2380.80;;;;;;5052549;28;20021;-82
2023/06/04 12:03:37;;;;;;;9.40;5.28;;;461.70;2380.80;;;;;;5052707;28;20025;-82
2023/06/04 12:06:17;;;;;;;5.25;3.47;;;486.40;2380.80;;;;;;5053913;28;20489;-81
2023/06/04 12:08:53;;;;;;;5.97;4.45;;;486.50;2380.80;;;;;;5052197;28;20119;-82
2023/06/04 12:11:33;;;;;;;6.10;4.25;;;486.80;2380.80;;;;;;5052533;28;20115;-82
2023/06/04 12:14:16;;;;;;;5.15;3.58;;;487.00;2380.80;;;;;;5052182;28;20060;-80
2023/06/04 12:16:42;;;;;;;4.43;2.80;;;487.10;2380.80;;;;;;5053999;28;20357;-81
2023/06/04 12:19:09;;;;;;;5.03;3.78;;;487.10;2380.80;;;;;;5052055;28;20036;-79
2023/06/04 12:21:35;;;;;;;4.78;3.30;;;512.00;2380.80;;;;;;5052159;28;20115;-78